sensor_id;sensor_type;location;lat;lon;timestamp;P1;durP1;ratioP1;P2;durP2;ratioP2
9892;SDS011;4985;49.092;8.542;2023-11-21T00:00:52;2.13;;;0.90;;
9892;SDS011;4985;49.092;8.542;2023-11-21T00:03:17;1.77;;;0.80;;
9892;SDS011;4985;49.092;8.542;2023-11-21T00:05:44;1.87;;;1.00;;
9892;SDS011;4985;49.092;8.542;2023-11-21T00:08:09;1.17;;;0.73;;
9892;SDS011;4985;49.092;8.542;2023-11-21T00:10:35;1.77;;;0.90;;
9892;SDS011;4985;49.092;8.542;2023-11-21T00:13:03;0.70;;;0.60;;
9892;SDS011;4985;49.092;8.542;2023-11-21T00:15:28;3.80;;;0.80;;
9892;SDS011;4985;49.092;8.542;2023-11-21T00:17:53;1.47;;;1.00;;
9892;SDS011;4985;49.092;8.542;2023-11-21T00:20:19;1.00;;;0.87;;
9892;SDS011;4985;49.092;8.542;2023-11-21T00:22:45;2.10;;;0.70;;
9892;SDS011;4985;49.092;8.542;2023-11-21T00:25:10;2.37;;;1.03;;
9892;SDS011;4985;49.092;8.542;2023-11-21T00:27:36;1.13;;;0.80;;
9892;SDS011;4985;49.092;8.542;2023-11-21T00:30:01;4.47;;;0.90;;
9892;SDS011;4985;49.092;8.542;2023-11-21T00:32:29;0.67;;;0.67;;
9892;SDS011;4985;49.092;8.542;2023-11-21T00:34:54;4.77;;;0.87;;
9892;SDS011;4985;49.092;8.542;2023-11-21T00:37:20;3.73;;;1.17;;
9892;SDS011;4985;49.092;8.542;2023-11-21T00:39:45;1.13;;;0.80;;
9892;SDS011;4985;49.092;8.542;2023-11-21T00:42:10;1.63;;;0.73;;
9892;SDS011;4985;49.092;8.542;2023-11-21T00:44:37;1.40;;;0.70;;
9892;SDS011;4985;49.092;8.542;2023-11-21T00:47:04;1.63;;;1.00;;
9892;SDS011;4985;49.092;8.542;2023-11-21T00:49:29;1.40;;;0.73;;
9892;SDS011;4985;49.092;8.542;2023-11-21T00:51:55;1.70;;;0.80;;
9892;SDS011;4985;49.092;8.542;2023-11-21T00:54:23;1.37;;;0.90;;
9892;SDS011;4985;49.092;8.542;2023-11-21T00:56:48;0.60;;;0.60;;
9892;SDS011;4985;49.092;8.542;2023-11-21T00:59:14;2.57;;;0.90;;
9892;SDS011;4985;49.092;8.542;2023-11-21T01:01:39;2.43;;;0.90;;
9892;SDS011;4985;49.092;8.542;2023-11-21T01:04:05;1.10;;;1.00;;
9892;SDS011;4985;49.092;8.542;2023-11-21T01:06:31;1.97;;;0.80;;
9892;SDS011;4985;49.092;8.542;2023-11-21T01:08:57;0.87;;;0.80;;
9892;SDS011;4985;49.092;8.542;2023-11-21T01:11:22;2.20;;;0.80;;
9892;SDS011;4985;49.092;8.542;2023-11-21T01:13:47;1.57;;;1.00;;
9892;SDS011;4985;49.092;8.542;2023-11-21T01:16:13;1.00;;;0.90;;
9892;SDS011;4985;49.092;8.542;2023-11-21T01:18:38;1.50;;;0.80;;
9892;SDS011;4985;49.092;8.542;2023-11-21T01:21:04;2.43;;;1.00;;
9892;SDS011;4985;49.092;8.542;2023-11-21T01:23:29;0.70;;;0.60;;
9892;SDS011;4985;49.092;8.542;2023-11-21T01:25:58;0.90;;;0.80;;
9892;SDS011;4985;49.092;8.542;2023-11-21T01:28:23;4.17;;;1.20;;
9892;SDS011;4985;49.092;8.542;2023-11-21T01:30:48;1.30;;;0.90;;
9892;SDS011;4985;49.092;8.542;2023-11-21T01:33:14;0.73;;;0.70;;
9892;SDS011;4985;49.092;8.542;2023-11-21T01:35:40;1.30;;;0.90;;
9892;SDS011;4985;49.092;8.542;2023-11-21T01:38:06;2.00;;;0.80;;
9892;SDS011;4985;49.092;8.542;2023-11-21T01:40:33;2.30;;;1.00;;
9892;SDS011;4985;49.092;8.542;2023-11-21T01:42:58;2.13;;;0.93;;
9892;SDS011;4985;49.092;8.542;2023-11-21T01:45:24;2.27;;;0.90;;
9892;SDS011;4985;49.092;8.542;2023-11-21T01:47:50;1.17;;;0.80;;
9892;SDS011;4985;49.092;8.542;2023-11-21T01:50:16;0.97;;;0.67;;
9892;SDS011;4985;49.092;8.542;2023-11-21T01:52:46;1.13;;;0.73;;
9892;SDS011;4985;49.092;8.542;2023-11-21T01:55:13;0.73;;;0.70;;
9892;SDS011;4985;49.092;8.542;2023-11-21T01:57:43;1.60;;;0.80;;
9892;SDS011;4985;49.092;8.542;2023-11-21T02:00:08;2.57;;;0.80;;
9892;SDS011;4985;49.092;8.542;2023-11-21T02:02:47;0.63;;;0.60;;
9892;SDS011;4985;49.092;8.542;2023-11-21T02:05:17;0.70;;;0.70;;
9892;SDS011;4985;49.092;8.542;2023-11-21T02:07:44;1.57;;;0.80;;
9892;SDS011;4985;49.092;8.542;2023-11-21T02:10:10;1.57;;;0.73;;
9892;SDS011;4985;49.092;8.542;2023-11-21T02:12:39;1.10;;;0.80;;
9892;SDS011;4985;49.092;8.542;2023-11-21T02:15:12;1.53;;;0.83;;
9892;SDS011;4985;49.092;8.542;2023-11-21T02:17:56;0.80;;;0.63;;
9892;SDS011;4985;49.092;8.542;2023-11-21T02:20:23;0.73;;;0.63;;
9892;SDS011;4985;49.092;8.542;2023-11-21T02:22:50;0.77;;;0.70;;
9892;SDS011;4985;49.092;8.542;2023-11-21T02:25:22;7.40;;;1.00;;
9892;SDS011;4985;49.092;8.542;2023-11-21T02:27:48;0.97;;;0.63;;
9892;SDS011;4985;49.092;8.542;2023-11-21T02:30:14;1.63;;;1.00;;
9892;SDS011;4985;49.092;8.542;2023-11-21T02:32:41;1.10;;;0.70;;
9892;SDS011;4985;49.092;8.542;2023-11-21T02:35:07;1.47;;;0.80;;
9892;SDS011;4985;49.092;8.542;2023-11-21T02:37:33;0.90;;;0.90;;
9892;SDS011;4985;49.092;8.542;2023-11-21T02:40:00;0.73;;;0.70;;
9892;SDS011;4985;49.092;8.542;2023-11-21T02:42:25;1.27;;;0.77;;
9892;SDS011;4985;49.092;8.542;2023-11-21T02:44:51;0.80;;;0.70;;
9892;SDS011;4985;49.092;8.542;2023-11-21T02:47:16;2.00;;;0.60;;
9892;SDS011;4985;49.092;8.542;2023-11-21T02:49:41;0.97;;;0.80;;
9892;SDS011;4985;49.092;8.542;2023-11-21T02:52:07;2.87;;;0.77;;
9892;SDS011;4985;49.092;8.542;2023-11-21T02:54:33;1.47;;;0.60;;
9892;SDS011;4985;49.092;8.542;2023-11-21T02:57:01;0.77;;;0.77;;
9892;SDS011;4985;49.092;8.542;2023-11-21T02:59:27;1.37;;;0.77;;
9892;SDS011;4985;49.092;8.542;2023-11-21T03:01:52;0.97;;;0.70;;
9892;SDS011;4985;49.092;8.542;2023-11-21T03:04:18;1.00;;;0.80;;
9892;SDS011;4985;49.092;8.542;2023-11-21T03:06:44;0.93;;;0.67;;
9892;SDS011;4985;49.092;8.542;2023-11-21T03:09:10;0.90;;;0.70;;
9892;SDS011;4985;49.092;8.542;2023-11-21T03:11:39;0.53;;;0.53;;
9892;SDS011;4985;49.092;8.542;2023-11-21T03:14:04;0.90;;;0.70;;
9892;SDS011;4985;49.092;8.542;2023-11-21T03:16:30;1.97;;;0.90;;
9892;SDS011;4985;49.092;8.542;2023-11-21T03:18:56;1.20;;;0.73;;
9892;SDS011;4985;49.092;8.542;2023-11-21T03:21:22;0.73;;;0.70;;
9892;SDS011;4985;49.092;8.542;2023-11-21T03:23:47;2.90;;;0.80;;
9892;SDS011;4985;49.092;8.542;2023-11-21T03:26:12;2.30;;;1.07;;
9892;SDS011;4985;49.092;8.542;2023-11-21T03:28:38;2.27;;;0.70;;
9892;SDS011;4985;49.092;8.542;2023-11-21T03:31:03;1.97;;;0.80;;
9892;SDS011;4985;49.092;8.542;2023-11-21T03:33:29;1.97;;;0.70;;
9892;SDS011;4985;49.092;8.542;2023-11-21T03:35:54;1.90;;;0.87;;
9892;SDS011;4985;49.092;8.542;2023-11-21T03:38:19;0.80;;;0.80;;
9892;SDS011;4985;49.092;8.542;2023-11-21T03:40:45;0.60;;;0.60;;
9892;SDS011;4985;49.092;8.542;2023-11-21T03:43:10;2.87;;;0.70;;
9892;SDS011;4985;49.092;8.542;2023-11-21T03:45:36;2.70;;;0.80;;
9892;SDS011;4985;49.092;8.542;2023-11-21T03:48:01;0.90;;;0.60;;
9892;SDS011;4985;49.092;8.542;2023-11-21T03:50:30;0.60;;;0.60;;
9892;SDS011;4985;49.092;8.542;2023-11-21T03:52:55;1.93;;;0.87;;
9892;SDS011;4985;49.092;8.542;2023-11-21T03:55:20;0.83;;;0.60;;
9892;SDS011;4985;49.092;8.542;2023-11-21T03:57:46;0.87;;;0.70;;
9892;SDS011;4985;49.092;8.542;2023-11-21T04:00:11;1.73;;;0.90;;
9892;SDS011;4985;49.092;8.542;2023-11-21T04:02:37;0.77;;;0.63;;
9892;SDS011;4985;49.092;8.542;2023-11-21T04:05:03;2.37;;;0.90;;
9892;SDS011;4985;49.092;8.542;2023-11-21T04:07:29;1.40;;;0.90;;
9892;SDS011;4985;49.092;8.542;2023-11-21T04:09:55;1.97;;;1.10;;
9892;SDS011;4985;49.092;8.542;2023-11-21T04:12:20;3.83;;;1.20;;
9892;SDS011;4985;49.092;8.542;2023-11-21T04:14:46;3.50;;;1.47;;
9892;SDS011;4985;49.092;8.542;2023-11-21T04:17:11;1.57;;;0.93;;
9892;SDS011;4985;49.092;8.542;2023-11-21T04:19:36;2.40;;;1.10;;
9892;SDS011;4985;49.092;8.542;2023-11-21T04:22:02;5.33;;;1.83;;
9892;SDS011;4985;49.092;8.542;2023-11-21T04:24:27;7.63;;;2.00;;
9892;SDS011;4985;49.092;8.542;2023-11-21T04:26:53;4.67;;;1.90;;
9892;SDS011;4985;49.092;8.542;2023-11-21T04:29:18;4.30;;;1.73;;
9892;SDS011;4985;49.092;8.542;2023-11-21T04:31:43;1.53;;;1.00;;
9892;SDS011;4985;49.092;8.542;2023-11-21T04:34:09;1.53;;;1.20;;
9892;SDS011;4985;49.092;8.542;2023-11-21T04:36:34;2.57;;;1.30;;
9892;SDS011;4985;49.092;8.542;2023-11-21T04:39:02;1.30;;;0.87;;
9892;SDS011;4985;49.092;8.542;2023-11-21T04:41:28;1.00;;;0.90;;
9892;SDS011;4985;49.092;8.542;2023-11-21T04:43:53;2.10;;;1.17;;
9892;SDS011;4985;49.092;8.542;2023-11-21T04:46:18;4.17;;;1.23;;
9892;SDS011;4985;49.092;8.542;2023-11-21T04:48:44;0.80;;;0.80;;
9892;SDS011;4985;49.092;8.542;2023-11-21T04:51:09;0.97;;;0.80;;
9892;SDS011;4985;49.092;8.542;2023-11-21T04:53:36;1.80;;;0.70;;
9892;SDS011;4985;49.092;8.542;2023-11-21T04:56:02;1.57;;;0.90;;
9892;SDS011;4985;49.092;8.542;2023-11-21T04:58:28;1.80;;;0.80;;
9892;SDS011;4985;49.092;8.542;2023-11-21T05:00:53;2.37;;;0.97;;
9892;SDS011;4985;49.092;8.542;2023-11-21T05:03:19;1.37;;;0.70;;
9892;SDS011;4985;49.092;8.542;2023-11-21T05:05:44;0.80;;;0.80;;
9892;SDS011;4985;49.092;8.542;2023-11-21T05:08:09;2.20;;;0.90;;
9892;SDS011;4985;49.092;8.542;2023-11-21T05:10:35;2.40;;;0.90;;
9892;SDS011;4985;49.092;8.542;2023-11-21T05:13:03;1.47;;;1.00;;
9892;SDS011;4985;49.092;8.542;2023-11-21T05:15:28;0.80;;;0.80;;
9892;SDS011;4985;49.092;8.542;2023-11-21T05:17:54;1.83;;;0.80;;
9892;SDS011;4985;49.092;8.542;2023-11-21T05:20:20;1.60;;;0.90;;
9892;SDS011;4985;49.092;8.542;2023-11-21T05:22:49;1.67;;;1.03;;
9892;SDS011;4985;49.092;8.542;2023-11-21T05:25:14;3.47;;;1.13;;
9892;SDS011;4985;49.092;8.542;2023-11-21T05:27:40;1.30;;;0.83;;
9892;SDS011;4985;49.092;8.542;2023-11-21T05:30:07;1.70;;;1.40;;
9892;SDS011;4985;49.092;8.542;2023-11-21T05:32:36;1.50;;;0.90;;
9892;SDS011;4985;49.092;8.542;2023-11-21T05:35:02;2.33;;;1.00;;
9892;SDS011;4985;49.092;8.542;2023-11-21T05:37:28;1.00;;;0.90;;
9892;SDS011;4985;49.092;8.542;2023-11-21T05:39:53;1.50;;;1.00;;
9892;SDS011;4985;49.092;8.542;2023-11-21T05:42:21;1.43;;;1.10;;
9892;SDS011;4985;49.092;8.542;2023-11-21T05:44:47;1.20;;;1.00;;
9892;SDS011;4985;49.092;8.542;2023-11-21T05:47:12;1.00;;;0.90;;
9892;SDS011;4985;49.092;8.542;2023-11-21T05:49:38;1.23;;;1.00;;
9892;SDS011;4985;49.092;8.542;2023-11-21T05:52:04;2.67;;;1.20;;
9892;SDS011;4985;49.092;8.542;2023-11-21T05:54:30;2.30;;;1.10;;
9892;SDS011;4985;49.092;8.542;2023-11-21T05:56:55;2.17;;;1.17;;
9892;SDS011;4985;49.092;8.542;2023-11-21T05:59:21;2.30;;;1.00;;
9892;SDS011;4985;49.092;8.542;2023-11-21T06:01:46;1.83;;;1.30;;
9892;SDS011;4985;49.092;8.542;2023-11-21T06:04:11;3.73;;;1.20;;
9892;SDS011;4985;49.092;8.542;2023-11-21T06:06:38;1.77;;;1.10;;
9892;SDS011;4985;49.092;8.542;2023-11-21T06:09:04;1.43;;;1.10;;
9892;SDS011;4985;49.092;8.542;2023-11-21T06:11:31;1.37;;;1.00;;
9892;SDS011;4985;49.092;8.542;2023-11-21T06:13:56;2.50;;;1.07;;
9892;SDS011;4985;49.092;8.542;2023-11-21T06:16:22;1.60;;;1.00;;
9892;SDS011;4985;49.092;8.542;2023-11-21T06:18:47;2.07;;;1.10;;
9892;SDS011;4985;49.092;8.542;2023-11-21T06:21:13;1.17;;;0.97;;
9892;SDS011;4985;49.092;8.542;2023-11-21T06:23:39;1.77;;;1.60;;
9892;SDS011;4985;49.092;8.542;2023-11-21T06:26:04;1.97;;;1.17;;
9892;SDS011;4985;49.092;8.542;2023-11-21T06:28:30;1.83;;;1.10;;
9892;SDS011;4985;49.092;8.542;2023-11-21T06:30:56;2.17;;;1.27;;
9892;SDS011;4985;49.092;8.542;2023-11-21T06:33:23;1.23;;;0.93;;
9892;SDS011;4985;49.092;8.542;2023-11-21T06:35:48;1.30;;;1.00;;
9892;SDS011;4985;49.092;8.542;2023-11-21T06:38:14;1.77;;;1.10;;
9892;SDS011;4985;49.092;8.542;2023-11-21T06:40:40;1.40;;;0.97;;
9892;SDS011;4985;49.092;8.542;2023-11-21T06:43:05;1.57;;;1.13;;
9892;SDS011;4985;49.092;8.542;2023-11-21T06:45:32;1.30;;;1.00;;
9892;SDS011;4985;49.092;8.542;2023-11-21T06:47:59;1.53;;;1.10;;
9892;SDS011;4985;49.092;8.542;2023-11-21T06:50:24;2.17;;;0.97;;
9892;SDS011;4985;49.092;8.542;2023-11-21T06:52:49;1.50;;;1.00;;
9892;SDS011;4985;49.092;8.542;2023-11-21T06:55:15;1.00;;;0.90;;
9892;SDS011;4985;49.092;8.542;2023-11-21T06:57:41;0.70;;;0.70;;
9892;SDS011;4985;49.092;8.542;2023-11-21T07:00:06;0.90;;;0.90;;
9892;SDS011;4985;49.092;8.542;2023-11-21T07:02:34;0.70;;;0.70;;
9892;SDS011;4985;49.092;8.542;2023-11-21T07:04:59;1.10;;;1.00;;
9892;SDS011;4985;49.092;8.542;2023-11-21T07:07:25;0.67;;;0.67;;
9892;SDS011;4985;49.092;8.542;2023-11-21T07:09:50;1.73;;;0.70;;
9892;SDS011;4985;49.092;8.542;2023-11-21T07:12:16;0.87;;;0.83;;
9892;SDS011;4985;49.092;8.542;2023-11-21T07:14:42;1.77;;;0.70;;
9892;SDS011;4985;49.092;8.542;2023-11-21T07:17:09;1.67;;;0.70;;
9892;SDS011;4985;49.092;8.542;2023-11-21T07:19:38;1.20;;;0.80;;
9892;SDS011;4985;49.092;8.542;2023-11-21T07:22:03;0.70;;;0.70;;
9892;SDS011;4985;49.092;8.542;2023-11-21T07:24:30;0.97;;;0.90;;
9892;SDS011;4985;49.092;8.542;2023-11-21T07:26:57;0.80;;;0.80;;
9892;SDS011;4985;49.092;8.542;2023-11-21T07:29:25;1.27;;;0.77;;
9892;SDS011;4985;49.092;8.542;2023-11-21T07:31:51;1.10;;;1.00;;
9892;SDS011;4985;49.092;8.542;2023-11-21T07:34:20;0.97;;;0.87;;
9892;SDS011;4985;49.092;8.542;2023-11-21T07:36:46;0.70;;;0.70;;
9892;SDS011;4985;49.092;8.542;2023-11-21T07:39:11;0.80;;;0.70;;
9892;SDS011;4985;49.092;8.542;2023-11-21T07:41:37;1.17;;;0.80;;
9892;SDS011;4985;49.092;8.542;2023-11-21T07:44:05;1.77;;;1.10;;
9892;SDS011;4985;49.092;8.542;2023-11-21T07:46:32;1.37;;;0.90;;
9892;SDS011;4985;49.092;8.542;2023-11-21T07:49:00;0.80;;;0.80;;
9892;SDS011;4985;49.092;8.542;2023-11-21T07:51:25;0.80;;;0.70;;
9892;SDS011;4985;49.092;8.542;2023-11-21T07:53:50;0.80;;;0.80;;
9892;SDS011;4985;49.092;8.542;2023-11-21T07:56:16;0.80;;;0.80;;
9892;SDS011;4985;49.092;8.542;2023-11-21T07:58:41;0.83;;;0.80;;
9892;SDS011;4985;49.092;8.542;2023-11-21T08:01:07;1.27;;;1.13;;
9892;SDS011;4985;49.092;8.542;2023-11-21T08:03:33;2.57;;;1.20;;
9892;SDS011;4985;49.092;8.542;2023-11-21T08:05:58;1.17;;;0.90;;
9892;SDS011;4985;49.092;8.542;2023-11-21T08:08:24;0.87;;;0.87;;
9892;SDS011;4985;49.092;8.542;2023-11-21T08:10:50;1.33;;;0.90;;
9892;SDS011;4985;49.092;8.542;2023-11-21T08:13:22;0.90;;;0.73;;
9892;SDS011;4985;49.092;8.542;2023-11-21T08:15:48;1.97;;;0.90;;
9892;SDS011;4985;49.092;8.542;2023-11-21T08:18:14;0.90;;;0.80;;
9892;SDS011;4985;49.092;8.542;2023-11-21T08:20:40;0.80;;;0.80;;
9892;SDS011;4985;49.092;8.542;2023-11-21T08:23:05;1.60;;;1.37;;
9892;SDS011;4985;49.092;8.542;2023-11-21T08:25:31;0.80;;;0.80;;
9892;SDS011;4985;49.092;8.542;2023-11-21T08:27:57;1.23;;;1.13;;
9892;SDS011;4985;49.092;8.542;2023-11-21T08:30:22;1.03;;;0.93;;
9892;SDS011;4985;49.092;8.542;2023-11-21T08:32:49;1.30;;;1.20;;
9892;SDS011;4985;49.092;8.542;2023-11-21T08:35:14;1.80;;;1.33;;
9892;SDS011;4985;49.092;8.542;2023-11-21T08:37:40;2.67;;;1.17;;
9892;SDS011;4985;49.092;8.542;2023-11-21T08:40:06;1.17;;;1.00;;
9892;SDS011;4985;49.092;8.542;2023-11-21T08:42:34;2.63;;;1.40;;
9892;SDS011;4985;49.092;8.542;2023-11-21T08:45:00;2.40;;;1.30;;
9892;SDS011;4985;49.092;8.542;2023-11-21T08:47:25;2.27;;;1.50;;
9892;SDS011;4985;49.092;8.542;2023-11-21T08:49:51;2.13;;;1.20;;
9892;SDS011;4985;49.092;8.542;2023-11-21T08:52:19;2.30;;;1.50;;
9892;SDS011;4985;49.092;8.542;2023-11-21T08:54:48;2.37;;;1.67;;
9892;SDS011;4985;49.092;8.542;2023-11-21T08:57:13;2.20;;;1.37;;
9892;SDS011;4985;49.092;8.542;2023-11-21T08:59:39;3.47;;;1.20;;
9892;SDS011;4985;49.092;8.542;2023-11-21T09:02:10;1.50;;;1.23;;
9892;SDS011;4985;49.092;8.542;2023-11-21T09:04:36;1.77;;;1.47;;
9892;SDS011;4985;49.092;8.542;2023-11-21T09:07:02;1.60;;;1.50;;
9892;SDS011;4985;49.092;8.542;2023-11-21T09:09:28;1.20;;;1.10;;
9892;SDS011;4985;49.092;8.542;2023-11-21T09:11:54;1.40;;;1.30;;
9892;SDS011;4985;49.092;8.542;2023-11-21T09:14:20;1.43;;;1.33;;
9892;SDS011;4985;49.092;8.542;2023-11-21T09:16:45;2.00;;;1.60;;
9892;SDS011;4985;49.092;8.542;2023-11-21T09:19:10;1.77;;;1.47;;
9892;SDS011;4985;49.092;8.542;2023-11-21T09:21:36;2.63;;;1.87;;
9892;SDS011;4985;49.092;8.542;2023-11-21T09:24:02;2.93;;;1.90;;
9892;SDS011;4985;49.092;8.542;2023-11-21T09:26:28;2.40;;;2.03;;
9892;SDS011;4985;49.092;8.542;2023-11-21T09:28:55;2.07;;;1.77;;
9892;SDS011;4985;49.092;8.542;2023-11-21T09:31:21;2.50;;;1.90;;
9892;SDS011;4985;49.092;8.542;2023-11-21T09:33:47;4.93;;;2.20;;
9892;SDS011;4985;49.092;8.542;2023-11-21T09:36:13;2.37;;;1.90;;
9892;SDS011;4985;49.092;8.542;2023-11-21T09:38:39;2.40;;;2.03;;
9892;SDS011;4985;49.092;8.542;2023-11-21T09:41:06;2.83;;;2.50;;
9892;SDS011;4985;49.092;8.542;2023-11-21T09:43:42;3.60;;;2.30;;
9892;SDS011;4985;49.092;8.542;2023-11-21T09:46:11;3.40;;;2.63;;
9892;SDS011;4985;49.092;8.542;2023-11-21T09:48:41;3.00;;;2.70;;
9892;SDS011;4985;49.092;8.542;2023-11-21T09:51:08;4.47;;;3.20;;
9892;SDS011;4985;49.092;8.542;2023-11-21T09:53:36;3.67;;;2.80;;
9892;SDS011;4985;49.092;8.542;2023-11-21T09:56:02;4.50;;;3.40;;
9892;SDS011;4985;49.092;8.542;2023-11-21T09:58:28;6.13;;;4.27;;
9892;SDS011;4985;49.092;8.542;2023-11-21T10:00:54;8.37;;;5.63;;
9892;SDS011;4985;49.092;8.542;2023-11-21T10:03:22;5.17;;;4.23;;
9892;SDS011;4985;49.092;8.542;2023-11-21T10:05:48;7.07;;;4.67;;
9892;SDS011;4985;49.092;8.542;2023-11-21T10:08:15;7.13;;;5.67;;
9892;SDS011;4985;49.092;8.542;2023-11-21T10:10:45;6.93;;;5.13;;
9892;SDS011;4985;49.092;8.542;2023-11-21T10:13:14;5.33;;;4.73;;
9892;SDS011;4985;49.092;8.542;2023-11-21T10:15:42;5.73;;;4.73;;
9892;SDS011;4985;49.092;8.542;2023-11-21T10:18:13;4.73;;;4.03;;
9892;SDS011;4985;49.092;8.542;2023-11-21T10:20:42;4.73;;;3.73;;
9892;SDS011;4985;49.092;8.542;2023-11-21T10:23:11;5.00;;;4.23;;
9892;SDS011;4985;49.092;8.542;2023-11-21T10:25:37;4.77;;;3.87;;
9892;SDS011;4985;49.092;8.542;2023-11-21T10:28:03;5.40;;;4.27;;
9892;SDS011;4985;49.092;8.542;2023-11-21T10:30:34;5.97;;;4.60;;
9892;SDS011;4985;49.092;8.542;2023-11-21T10:33:02;4.60;;;3.87;;
9892;SDS011;4985;49.092;8.542;2023-11-21T10:35:43;6.07;;;4.30;;
9892;SDS011;4985;49.092;8.542;2023-11-21T10:38:18;7.13;;;5.70;;
9892;SDS011;4985;49.092;8.542;2023-11-21T10:40:46;8.17;;;5.53;;
9892;SDS011;4985;49.092;8.542;2023-11-21T10:43:13;5.50;;;4.37;;
9892;SDS011;4985;49.092;8.542;2023-11-21T10:45:40;7.20;;;5.33;;
9892;SDS011;4985;49.092;8.542;2023-11-21T10:48:06;8.83;;;5.87;;
9892;SDS011;4985;49.092;8.542;2023-11-21T10:50:40;8.33;;;4.97;;
9892;SDS011;4985;49.092;8.542;2023-11-21T10:53:07;6.77;;;4.07;;
9892;SDS011;4985;49.092;8.542;2023-11-21T10:55:33;4.50;;;3.73;;
9892;SDS011;4985;49.092;8.542;2023-11-21T10:58:00;5.33;;;4.17;;
9892;SDS011;4985;49.092;8.542;2023-11-21T11:00:27;5.40;;;4.63;;
9892;SDS011;4985;49.092;8.542;2023-11-21T11:02:54;6.63;;;4.73;;
9892;SDS011;4985;49.092;8.542;2023-11-21T11:05:21;5.30;;;4.30;;
9892;SDS011;4985;49.092;8.542;2023-11-21T11:07:50;10.13;;;5.20;;
9892;SDS011;4985;49.092;8.542;2023-11-21T11:10:19;5.97;;;4.17;;
9892;SDS011;4985;49.092;8.542;2023-11-21T11:12:47;7.10;;;4.60;;
9892;SDS011;4985;49.092;8.542;2023-11-21T11:15:15;5.10;;;4.40;;
9892;SDS011;4985;49.092;8.542;2023-11-21T11:17:41;6.23;;;5.03;;
9892;SDS011;4985;49.092;8.542;2023-11-21T11:20:07;5.67;;;3.70;;
9892;SDS011;4985;49.092;8.542;2023-11-21T11:23:04;5.20;;;4.17;;
9892;SDS011;4985;49.092;8.542;2023-11-21T11:28:26;8.60;;;4.90;;
9892;SDS011;4985;49.092;8.542;2023-11-21T11:31:00;6.03;;;4.43;;
9892;SDS011;4985;49.092;8.542;2023-11-21T11:33:53;4.13;;;3.50;;
9892;SDS011;4985;49.092;8.542;2023-11-21T11:37:00;6.37;;;4.37;;
9892;SDS011;4985;49.092;8.542;2023-11-21T11:39:35;4.40;;;3.03;;
9892;SDS011;4985;49.092;8.542;2023-11-21T11:42:07;5.93;;;4.07;;
9892;SDS011;4985;49.092;8.542;2023-11-21T11:47:14;3.87;;;2.97;;
9892;SDS011;4985;49.092;8.542;2023-11-21T11:49:59;3.60;;;2.87;;
9892;SDS011;4985;49.092;8.542;2023-11-21T11:52:35;6.17;;;2.90;;
9892;SDS011;4985;49.092;8.542;2023-11-21T11:55:01;4.73;;;3.27;;
9892;SDS011;4985;49.092;8.542;2023-11-21T11:57:31;4.37;;;2.93;;
9892;SDS011;4985;49.092;8.542;2023-11-21T12:00:07;3.37;;;2.77;;
9892;SDS011;4985;49.092;8.542;2023-11-21T12:02:37;3.03;;;2.40;;
9892;SDS011;4985;49.092;8.542;2023-11-21T12:05:08;3.60;;;3.10;;
9892;SDS011;4985;49.092;8.542;2023-11-21T12:07:47;3.20;;;2.83;;
9892;SDS011;4985;49.092;8.542;2023-11-21T12:10:18;3.03;;;2.40;;
9892;SDS011;4985;49.092;8.542;2023-11-21T12:15:23;2.50;;;2.03;;
9892;SDS011;4985;49.092;8.542;2023-11-21T12:17:50;1.40;;;1.17;;
9892;SDS011;4985;49.092;8.542;2023-11-21T12:20:19;1.50;;;1.37;;
9892;SDS011;4985;49.092;8.542;2023-11-21T12:22:50;2.10;;;1.50;;
9892;SDS011;4985;49.092;8.542;2023-11-21T12:25:20;1.87;;;1.40;;
9892;SDS011;4985;49.092;8.542;2023-11-21T12:27:51;6.13;;;3.37;;
9892;SDS011;4985;49.092;8.542;2023-11-21T12:30:24;5.20;;;2.77;;
9892;SDS011;4985;49.092;8.542;2023-11-21T12:32:53;3.90;;;2.70;;
9892;SDS011;4985;49.092;8.542;2023-11-21T12:35:33;2.40;;;1.40;;
9892;SDS011;4985;49.092;8.542;2023-11-21T12:38:00;6.23;;;3.50;;
9892;SDS011;4985;49.092;8.542;2023-11-21T12:40:34;19.10;;;8.57;;
9892;SDS011;4985;49.092;8.542;2023-11-21T12:42:59;8.77;;;4.37;;
9892;SDS011;4985;49.092;8.542;2023-11-21T12:45:26;4.63;;;2.03;;
9892;SDS011;4985;49.092;8.542;2023-11-21T12:47:56;3.20;;;1.93;;
9892;SDS011;4985;49.092;8.542;2023-11-21T12:50:25;1.30;;;1.13;;
9892;SDS011;4985;49.092;8.542;2023-11-21T12:52:54;2.00;;;1.50;;
9892;SDS011;4985;49.092;8.542;2023-11-21T12:55:23;2.03;;;1.00;;
9892;SDS011;4985;49.092;8.542;2023-11-21T12:57:55;2.47;;;1.00;;
9892;SDS011;4985;49.092;8.542;2023-11-21T13:00:28;1.30;;;1.00;;
9892;SDS011;4985;49.092;8.542;2023-11-21T13:02:59;1.07;;;0.80;;
9892;SDS011;4985;49.092;8.542;2023-11-21T13:05:32;1.13;;;0.70;;
9892;SDS011;4985;49.092;8.542;2023-11-21T13:08:00;1.00;;;0.90;;
9892;SDS011;4985;49.092;8.542;2023-11-21T13:10:31;0.90;;;0.90;;
9892;SDS011;4985;49.092;8.542;2023-11-21T13:12:57;0.70;;;0.70;;
9892;SDS011;4985;49.092;8.542;2023-11-21T13:15:24;1.47;;;0.87;;
9892;SDS011;4985;49.092;8.542;2023-11-21T13:17:50;0.90;;;0.80;;
9892;SDS011;4985;49.092;8.542;2023-11-21T13:20:16;1.27;;;1.00;;
9892;SDS011;4985;49.092;8.542;2023-11-21T13:22:48;1.17;;;1.07;;
9892;SDS011;4985;49.092;8.542;2023-11-21T13:25:24;1.13;;;1.03;;
9892;SDS011;4985;49.092;8.542;2023-11-21T13:27:55;2.33;;;1.20;;
9892;SDS011;4985;49.092;8.542;2023-11-21T13:30:21;0.80;;;0.80;;
9892;SDS011;4985;49.092;8.542;2023-11-21T13:32:54;1.10;;;1.00;;
9892;SDS011;4985;49.092;8.542;2023-11-21T13:35:22;1.10;;;1.00;;
9892;SDS011;4985;49.092;8.542;2023-11-21T13:37:56;1.07;;;1.07;;
9892;SDS011;4985;49.092;8.542;2023-11-21T13:40:25;2.00;;;1.30;;
9892;SDS011;4985;49.092;8.542;2023-11-21T13:42:55;1.30;;;1.20;;
9892;SDS011;4985;49.092;8.542;2023-11-21T13:45:24;1.40;;;1.17;;
9892;SDS011;4985;49.092;8.542;2023-11-21T13:47:52;1.37;;;1.27;;
9892;SDS011;4985;49.092;8.542;2023-11-21T13:50:23;1.80;;;1.40;;
9892;SDS011;4985;49.092;8.542;2023-11-21T13:52:53;1.60;;;1.30;;
9892;SDS011;4985;49.092;8.542;2023-11-21T13:55:20;1.83;;;1.53;;
9892;SDS011;4985;49.092;8.542;2023-11-21T13:57:49;2.50;;;1.80;;
9892;SDS011;4985;49.092;8.542;2023-11-21T14:00:17;2.00;;;1.60;;
9892;SDS011;4985;49.092;8.542;2023-11-21T14:03:01;1.83;;;1.73;;
9892;SDS011;4985;49.092;8.542;2023-11-21T14:05:31;1.93;;;1.83;;
9892;SDS011;4985;49.092;8.542;2023-11-21T14:07:58;1.97;;;1.77;;
9892;SDS011;4985;49.092;8.542;2023-11-21T14:10:30;1.57;;;1.47;;
9892;SDS011;4985;49.092;8.542;2023-11-21T14:13:08;1.60;;;1.40;;
9892;SDS011;4985;49.092;8.542;2023-11-21T14:15:38;1.60;;;1.23;;
9892;SDS011;4985;49.092;8.542;2023-11-21T14:18:10;2.07;;;1.80;;
9892;SDS011;4985;49.092;8.542;2023-11-21T14:20:37;2.13;;;1.53;;
9892;SDS011;4985;49.092;8.542;2023-11-21T14:23:03;4.00;;;1.57;;
9892;SDS011;4985;49.092;8.542;2023-11-21T14:25:34;2.00;;;1.60;;
9892;SDS011;4985;49.092;8.542;2023-11-21T14:27:59;1.90;;;1.47;;
9892;SDS011;4985;49.092;8.542;2023-11-21T14:30:25;2.43;;;2.03;;
9892;SDS011;4985;49.092;8.542;2023-11-21T14:32:52;1.90;;;1.50;;
9892;SDS011;4985;49.092;8.542;2023-11-21T14:35:17;1.90;;;1.30;;
9892;SDS011;4985;49.092;8.542;2023-11-21T14:37:43;1.43;;;1.30;;
9892;SDS011;4985;49.092;8.542;2023-11-21T14:40:08;2.03;;;1.77;;
9892;SDS011;4985;49.092;8.542;2023-11-21T14:42:34;1.90;;;1.43;;
9892;SDS011;4985;49.092;8.542;2023-11-21T14:45:02;2.03;;;1.47;;
9892;SDS011;4985;49.092;8.542;2023-11-21T14:47:32;2.03;;;1.70;;
9892;SDS011;4985;49.092;8.542;2023-11-21T14:49:58;2.17;;;1.67;;
9892;SDS011;4985;49.092;8.542;2023-11-21T14:52:24;1.87;;;1.60;;
9892;SDS011;4985;49.092;8.542;2023-11-21T14:55:03;1.67;;;1.57;;
9892;SDS011;4985;49.092;8.542;2023-11-21T14:57:48;1.70;;;1.40;;
9892;SDS011;4985;49.092;8.542;2023-11-21T15:00:17;2.57;;;1.97;;
9892;SDS011;4985;49.092;8.542;2023-11-21T15:02:59;1.67;;;1.57;;
9892;SDS011;4985;49.092;8.542;2023-11-21T15:05:25;1.70;;;1.60;;
9892;SDS011;4985;49.092;8.542;2023-11-21T15:07:52;2.27;;;1.70;;
9892;SDS011;4985;49.092;8.542;2023-11-21T15:10:33;2.67;;;2.30;;
9892;SDS011;4985;49.092;8.542;2023-11-21T15:13:10;2.30;;;2.03;;
9892;SDS011;4985;49.092;8.542;2023-11-21T15:15:36;3.20;;;2.40;;
9892;SDS011;4985;49.092;8.542;2023-11-21T15:18:02;2.30;;;2.07;;
9892;SDS011;4985;49.092;8.542;2023-11-21T15:20:28;3.30;;;2.70;;
9892;SDS011;4985;49.092;8.542;2023-11-21T15:22:53;3.20;;;2.27;;
9892;SDS011;4985;49.092;8.542;2023-11-21T15:25:19;4.30;;;2.47;;